createdAt,value
2022-11-07T00:01:27.696Z,8.10
2022-11-07T00:03:55.030Z,8.10
2022-11-07T00:06:22.374Z,8.10
2022-11-07T00:08:49.273Z,8.20
2022-11-07T00:11:16.001Z,8.10
2022-11-07T00:13:42.793Z,8.10
2022-11-07T00:16:10.829Z,8.10
2022-11-07T00:18:37.752Z,8.20
2022-11-07T00:21:05.883Z,8.20
2022-11-07T00:23:32.611Z,8.10
2022-11-07T00:26:06.388Z,8.20
2022-11-07T00:28:34.646Z,8.20
2022-11-07T00:31:01.430Z,8.30
2022-11-07T00:33:28.172Z,8.30
2022-11-07T00:35:55.034Z,8.30
2022-11-07T00:38:22.083Z,8.30
2022-11-07T00:41:03.936Z,8.40
2022-11-07T00:43:31.478Z,8.40
2022-11-07T00:46:04.094Z,8.40
2022-11-07T00:48:31.724Z,8.50
2022-11-07T00:51:05.142Z,8.50
2022-11-07T00:53:31.841Z,8.60
2022-11-07T00:56:03.193Z,8.70
2022-11-07T00:58:29.981Z,8.60
2022-11-07T01:03:44.300Z,8.60
2022-11-07T01:08:58.476Z,8.70
2022-11-07T01:14:16.848Z,8.70
2022-11-07T01:19:30.631Z,8.70
2022-11-07T01:24:44.091Z,8.70
2022-11-07T01:29:57.551Z,8.70
2022-11-07T01:32:24.346Z,8.70
2022-11-07T01:34:51.188Z,8.60
2022-11-07T01:37:17.982Z,8.70
2022-11-07T01:39:44.749Z,8.70
2022-11-07T01:42:12.817Z,8.70
2022-11-07T01:44:42.305Z,8.70
2022-11-07T01:49:59.079Z,8.70
2022-11-07T01:52:36.154Z,8.70
2022-11-07T01:55:14.237Z,8.70
2022-11-07T01:58:03.151Z,8.70
2022-11-07T02:00:31.038Z,8.70
2022-11-07T02:03:12.803Z,8.70
2022-11-07T02:08:51.706Z,8.70
2022-11-07T02:11:19.496Z,8.70
2022-11-07T02:13:46.272Z,8.60
2022-11-07T02:16:13.098Z,8.70
2022-11-07T02:18:41.870Z,8.70
2022-11-07T02:21:23.902Z,8.70
2022-11-07T02:26:48.373Z,8.70
2022-11-07T02:32:08.347Z,8.70
2022-11-07T02:34:35.691Z,8.70
2022-11-07T02:37:06.827Z,8.70
2022-11-07T02:39:34.428Z,8.70
2022-11-07T02:42:01.672Z,8.70
2022-11-07T02:44:30.366Z,8.70
2022-11-07T02:46:57.616Z,8.80
2022-11-07T02:49:24.457Z,8.90
2022-11-07T02:51:51.157Z,8.80
2022-11-07T02:54:17.866Z,8.80
2022-11-07T02:56:44.605Z,8.80
2022-11-07T02:59:11.325Z,8.80
2022-11-07T03:01:38.285Z,8.80
2022-11-07T03:04:05.353Z,8.80
2022-11-07T03:06:33.177Z,8.80
2022-11-07T03:08:59.983Z,8.80
2022-11-07T03:11:26.725Z,8.80
2022-11-07T03:13:53.491Z,8.80
2022-11-07T03:16:20.278Z,8.80
2022-11-07T03:18:47.241Z,8.70
2022-11-07T03:21:14.435Z,8.70
2022-11-07T03:23:41.167Z,8.70
2022-11-07T03:26:07.909Z,8.70
2022-11-07T03:28:34.646Z,8.70
2022-11-07T03:31:03.409Z,8.70
2022-11-07T03:33:31.036Z,8.70
2022-11-07T03:35:57.904Z,8.80
2022-11-07T03:38:24.660Z,8.80
2022-11-07T03:40:51.363Z,8.80
2022-11-07T03:43:18.256Z,8.80
2022-11-07T03:45:45.013Z,8.80
2022-11-07T03:50:58.433Z,8.80
2022-11-07T03:53:26.347Z,8.80
2022-11-07T03:55:55.452Z,8.80
2022-11-07T03:58:23.402Z,8.80
2022-11-07T04:03:36.808Z,8.80
2022-11-07T04:06:03.572Z,8.70
2022-11-07T04:08:30.329Z,8.80
2022-11-07T04:10:57.083Z,8.80
2022-11-07T04:13:23.793Z,8.70
2022-11-07T04:15:51.847Z,8.80
2022-11-07T04:18:18.586Z,8.80
2022-11-07T04:20:45.301Z,8.70
2022-11-07T04:23:12.362Z,8.70
2022-11-07T04:25:39.320Z,8.70
2022-11-07T04:28:06.065Z,8.80
2022-11-07T04:30:32.791Z,8.70
2022-11-07T04:33:01.279Z,8.80
2022-11-07T04:35:32.054Z,8.80
2022-11-07T04:38:00.033Z,8.80
2022-11-07T04:40:27.997Z,8.80
2022-11-07T04:45:42.036Z,8.90
2022-11-07T04:50:55.445Z,9.00
2022-11-07T04:53:22.186Z,9.10
2022-11-07T04:55:49.030Z,9.10
2022-11-07T04:58:15.790Z,9.10
2022-11-07T05:00:42.544Z,9.10
2022-11-07T05:03:09.424Z,9.10
2022-11-07T05:05:36.312Z,9.10
2022-11-07T05:08:03.032Z,9.10
2022-11-07T05:10:29.879Z,9.10
2022-11-07T05:12:56.683Z,9.20
2022-11-07T05:15:23.856Z,9.30
2022-11-07T05:17:50.701Z,9.30
2022-11-07T05:20:33.298Z,9.30
2022-11-07T05:25:54.352Z,9.40
2022-11-07T05:28:31.280Z,9.50
2022-11-07T05:31:04.438Z,9.50
2022-11-07T05:36:20.453Z,9.50
2022-11-07T05:41:36.469Z,9.50
2022-11-07T05:44:03.227Z,9.50
2022-11-07T05:46:30.199Z,9.50
2022-11-07T05:49:00.839Z,9.50
2022-11-07T05:51:28.145Z,9.40
2022-11-07T05:53:54.873Z,9.50
2022-11-07T05:56:21.604Z,9.40
2022-11-07T05:58:48.350Z,9.40
2022-11-07T06:01:15.074Z,9.40
2022-11-07T06:03:41.792Z,9.40
2022-11-07T06:06:08.566Z,9.40
2022-11-07T06:08:35.277Z,9.30
2022-11-07T06:11:05.094Z,9.30
2022-11-07T06:13:31.831Z,9.20
2022-11-07T06:15:58.741Z,9.20
2022-11-07T06:18:25.528Z,9.10
2022-11-07T06:20:52.272Z,9.10
2022-11-07T06:23:19.549Z,9.00
2022-11-07T06:25:46.770Z,9.00
2022-11-07T06:28:14.803Z,9.10
2022-11-07T06:30:42.078Z,9.10
2022-11-07T06:33:12.888Z,9.00
2022-11-07T06:38:26.627Z,9.10
2022-11-07T06:40:53.353Z,9.10
2022-11-07T06:43:20.834Z,9.20
2022-11-07T06:45:48.293Z,9.20
2022-11-07T06:51:04.154Z,9.30
2022-11-07T06:56:17.728Z,9.30
2022-11-07T06:58:44.484Z,9.30
2022-11-07T07:01:12.468Z,9.40
2022-11-07T07:03:40.065Z,9.40
2022-11-07T07:06:09.999Z,9.40
2022-11-07T07:08:36.857Z,9.40
2022-11-07T07:11:08.914Z,9.40
2022-11-07T07:13:35.853Z,9.40
2022-11-07T07:16:02.728Z,9.40
2022-11-07T07:18:30.150Z,9.50
2022-11-07T07:23:58.368Z,9.70
2022-11-07T07:26:25.115Z,9.80
2022-11-07T07:28:51.868Z,9.90
2022-11-07T07:31:36.742Z,9.80
2022-11-07T07:34:03.505Z,9.90
2022-11-07T07:36:30.239Z,10.00
2022-11-07T07:38:56.965Z,10.00
2022-11-07T07:41:23.790Z,10.00
2022-11-07T07:43:50.520Z,10.00
2022-11-07T07:46:21.796Z,11.40
2022-11-07T07:48:48.677Z,12.70
2022-11-07T07:51:15.454Z,13.20
2022-11-07T07:53:42.315Z,12.20
2022-11-07T07:56:09.153Z,11.40
2022-11-07T07:58:35.873Z,10.90
2022-11-07T08:01:05.026Z,10.70
2022-11-07T08:03:50.748Z,10.60
2022-11-07T08:06:18.499Z,12.60
2022-11-07T08:08:45.225Z,13.80
2022-11-07T08:11:13.385Z,13.80
2022-11-07T08:13:43.653Z,14.50
2022-11-07T08:18:57.177Z,15.30
2022-11-07T08:21:23.931Z,14.80
2022-11-07T08:23:50.642Z,15.10
2022-11-07T08:26:17.392Z,14.40
2022-11-07T08:28:44.101Z,15.50
2022-11-07T08:31:11.962Z,16.00
2022-11-07T08:33:39.013Z,15.80
2022-11-07T08:36:07.198Z,15.30
2022-11-07T08:38:35.850Z,15.40
2022-11-07T08:41:03.330Z,16.20
2022-11-07T08:43:30.034Z,16.60
2022-11-07T08:45:56.910Z,15.40
2022-11-07T08:48:24.032Z,15.40
2022-11-07T08:53:41.977Z,15.30
2022-11-07T08:56:10.267Z,16.20
2022-11-07T08:58:37.482Z,16.00
2022-11-07T09:01:09.116Z,15.40
2022-11-07T09:03:48.802Z,15.90
2022-11-07T09:06:20.219Z,16.30
2022-11-07T09:08:47.005Z,15.80
2022-11-07T09:11:14.013Z,17.10
2022-11-07T09:13:40.944Z,16.60
2022-11-07T09:16:08.023Z,15.10
2022-11-07T09:18:34.781Z,17.00
2022-11-07T09:23:48.235Z,16.00
2022-11-07T09:29:01.665Z,15.20
2022-11-07T09:34:15.070Z,14.80
2022-11-07T09:36:41.887Z,14.00
2022-11-07T09:39:08.689Z,14.60
2022-11-07T09:41:56.274Z,14.60
2022-11-07T09:44:46.531Z,14.40
2022-11-07T09:47:13.278Z,14.40
2022-11-07T09:49:55.825Z,14.40
2022-11-07T09:52:31.421Z,14.20
2022-11-07T09:55:27.736Z,14.50
2022-11-07T09:58:11.756Z,14.10
2022-11-07T10:00:40.213Z,13.90
2022-11-07T10:03:09.629Z,13.70
2022-11-07T10:09:08.796Z,13.60
2022-11-07T10:11:35.680Z,13.60
2022-11-07T10:14:31.622Z,13.80
2022-11-07T10:17:01.458Z,13.60
2022-11-07T10:19:44.773Z,13.50
2022-11-07T10:22:22.811Z,13.50
2022-11-07T10:25:16.182Z,13.40
2022-11-07T10:27:46.891Z,13.20
2022-11-07T10:30:20.194Z,13.30
2022-11-07T10:36:27.573Z,13.20
2022-11-07T10:38:54.645Z,13.30
2022-11-07T10:41:23.930Z,13.30
2022-11-07T10:44:06.112Z,13.40
2022-11-07T10:46:40.077Z,13.60
2022-11-07T10:49:24.831Z,13.60
2022-11-07T10:51:53.375Z,13.70
2022-11-07T10:57:15.764Z,15.20
2022-11-07T11:00:20.813Z,15.50
2022-11-07T11:02:48.814Z,15.00
2022-11-07T11:05:23.659Z,15.00
2022-11-07T11:07:50.897Z,14.80
2022-11-07T11:10:27.478Z,14.90
2022-11-07T11:12:54.366Z,14.60
2022-11-07T11:15:24.782Z,14.00
2022-11-07T11:18:06.697Z,14.10
2022-11-07T11:20:40.437Z,13.80
2022-11-07T11:23:18.300Z,13.70
2022-11-07T11:25:47.361Z,13.70
2022-11-07T11:28:25.346Z,13.70
2022-11-07T11:31:19.470Z,13.70
2022-11-07T11:33:54.690Z,13.70
2022-11-07T11:36:29.375Z,14.30
2022-11-07T11:41:56.694Z,14.80
2022-11-07T11:44:40.707Z,14.90
2022-11-07T11:47:19.502Z,15.30
2022-11-07T11:49:58.987Z,15.20
2022-11-07T11:52:26.124Z,15.10
2022-11-07T11:54:56.109Z,14.70
2022-11-07T11:57:35.755Z,14.90
2022-11-07T12:00:16.116Z,14.60
2022-11-07T12:03:14.589Z,14.40
2022-11-07T12:06:06.435Z,14.40
2022-11-07T12:08:38.698Z,14.30
2022-11-07T12:11:09.944Z,14.30
2022-11-07T12:13:44.645Z,14.00
2022-11-07T12:16:14.352Z,14.00
2022-11-07T12:18:55.758Z,13.90
2022-11-07T12:30:52.266Z,13.70
2022-11-07T12:33:45.971Z,13.60
2022-11-07T12:36:33.786Z,13.50
2022-11-07T12:42:12.703Z,13.40
2022-11-07T12:44:45.497Z,13.40
2022-11-07T12:47:28.863Z,13.30
2022-11-07T12:50:44.053Z,13.20
2022-11-07T12:53:23.695Z,13.30
2022-11-07T12:55:57.128Z,13.20
2022-11-07T12:58:28.062Z,13.20
2022-11-07T13:00:56.282Z,13.10
2022-11-07T13:03:56.651Z,13.10
2022-11-07T13:06:36.028Z,13.00
2022-11-07T13:09:14.778Z,13.00
2022-11-07T13:11:44.305Z,13.00
2022-11-07T13:14:37.420Z,13.00
2022-11-07T13:17:20.607Z,13.00
2022-11-07T13:20:01.817Z,13.10
2022-11-07T13:22:37.659Z,13.10
2022-11-07T13:25:17.192Z,13.20
2022-11-07T13:30:56.468Z,13.20
2022-11-07T13:33:31.908Z,13.20
2022-11-07T13:36:24.877Z,13.20
2022-11-07T13:38:56.545Z,13.20
2022-11-07T13:41:24.854Z,13.10
2022-11-07T13:44:00.687Z,13.10
2022-11-07T13:46:37.060Z,13.00
2022-11-07T13:49:44.066Z,13.10
2022-11-07T13:52:22.401Z,13.00
2022-11-07T13:55:03.679Z,13.00
2022-11-07T13:57:50.958Z,13.00
2022-11-07T14:00:19.304Z,13.00
2022-11-07T14:02:57.649Z,13.00
2022-11-07T14:05:27.494Z,13.00
2022-11-07T14:11:22.784Z,12.90
2022-11-07T14:16:40.839Z,12.90
2022-11-07T14:22:02.055Z,12.80
2022-11-07T14:27:17.349Z,12.70
2022-11-07T14:29:54.584Z,12.70
2022-11-07T14:32:21.869Z,12.70
2022-11-07T14:34:50.976Z,12.60
2022-11-07T14:37:20.418Z,12.60
2022-11-07T14:39:47.742Z,12.60
2022-11-07T14:42:24.868Z,12.50
2022-11-07T14:44:55.932Z,12.50
2022-11-07T14:47:31.038Z,12.50
2022-11-07T14:49:59.367Z,12.50
2022-11-07T14:53:03.087Z,12.50
2022-11-07T14:55:34.147Z,12.50
2022-11-07T14:58:03.501Z,12.50
2022-11-07T15:00:31.270Z,12.50
2022-11-07T15:02:59.776Z,12.40
2022-11-07T15:05:30.984Z,12.50
2022-11-07T15:07:59.564Z,12.40
2022-11-07T15:13:26.006Z,12.10
2022-11-07T15:16:07.292Z,11.90
2022-11-07T15:18:39.127Z,11.80
2022-11-07T15:23:35.158Z,11.70
2022-11-07T15:26:07.977Z,11.60
2022-11-07T15:28:47.165Z,11.60
2022-11-07T15:31:28.756Z,11.70
2022-11-07T15:33:57.877Z,11.60
2022-11-07T15:36:25.327Z,11.60
2022-11-07T15:38:52.711Z,11.50
2022-11-07T15:41:19.832Z,11.50
2022-11-07T15:43:46.590Z,11.50
2022-11-07T15:46:27.945Z,11.50
2022-11-07T15:48:54.842Z,11.50
2022-11-07T15:51:21.572Z,11.50
2022-11-07T15:56:35.086Z,11.40
2022-11-07T15:59:01.888Z,11.50
2022-11-07T16:01:28.711Z,11.50
2022-11-07T16:03:55.564Z,11.50
2022-11-07T16:09:21.503Z,11.60
2022-11-07T16:14:43.902Z,11.50
2022-11-07T16:17:18.743Z,11.60
2022-11-07T16:19:45.851Z,11.50
2022-11-07T16:25:01.282Z,11.60
2022-11-07T16:27:28.036Z,11.60
2022-11-07T16:29:54.759Z,11.60
2022-11-07T16:32:21.495Z,11.70
2022-11-07T16:34:48.236Z,11.70
2022-11-07T16:37:15.024Z,11.70
2022-11-07T16:39:41.765Z,11.60
2022-11-07T16:42:14.564Z,11.70
2022-11-07T16:44:41.348Z,11.70
2022-11-07T16:47:13.703Z,11.70
2022-11-07T16:49:40.619Z,11.70
2022-11-07T16:52:09.753Z,11.70
2022-11-07T16:54:36.544Z,11.70
2022-11-07T16:57:03.367Z,11.70
2022-11-07T16:59:30.093Z,11.70
2022-11-07T17:01:57.132Z,11.70
2022-11-07T17:04:24.013Z,11.60
2022-11-07T17:06:50.800Z,11.60
2022-11-07T17:09:18.027Z,11.60
2022-11-07T17:11:44.811Z,11.70
2022-11-07T17:14:12.312Z,11.60
2022-11-07T17:16:42.321Z,11.70
2022-11-07T17:19:12.163Z,11.70
2022-11-07T17:21:39.258Z,11.70
2022-11-07T17:26:53.107Z,11.70
2022-11-07T17:29:19.893Z,11.80
2022-11-07T17:31:46.752Z,11.80
2022-11-07T17:34:13.519Z,11.90
2022-11-07T17:36:43.463Z,11.90
2022-11-07T17:39:16.012Z,11.90
2022-11-07T17:41:44.757Z,12.00
2022-11-07T17:47:00.483Z,11.90
2022-11-07T17:52:13.849Z,11.90
2022-11-07T17:57:27.200Z,11.90
2022-11-07T17:59:53.923Z,11.90
2022-11-07T18:02:20.931Z,11.80
2022-11-07T18:04:47.816Z,11.80
2022-11-07T18:07:14.542Z,11.80
2022-11-07T18:09:41.529Z,11.80
2022-11-07T18:14:56.010Z,11.80
2022-11-07T18:20:10.642Z,11.80
2022-11-07T18:22:37.606Z,11.90
2022-11-07T18:25:08.020Z,12.00
2022-11-07T18:27:35.619Z,12.00
2022-11-07T18:30:03.629Z,12.00
2022-11-07T18:32:35.833Z,12.00
2022-11-07T18:35:05.121Z,12.00
2022-11-07T18:40:18.799Z,12.10
2022-11-07T18:45:32.714Z,12.00
2022-11-07T18:50:46.052Z,12.00
2022-11-07T18:56:05.636Z,12.10
2022-11-07T18:58:34.842Z,12.00
2022-11-07T19:01:06.361Z,12.10
2022-11-07T19:03:34.420Z,12.00
2022-11-07T19:06:03.422Z,12.10
2022-11-07T19:08:32.925Z,12.10
2022-11-07T19:11:02.048Z,12.10
2022-11-07T19:13:29.107Z,12.10
2022-11-07T19:15:56.103Z,12.00
2022-11-07T19:18:23.084Z,12.00
2022-11-07T19:20:53.251Z,12.00
2022-11-07T19:23:20.227Z,12.10
2022-11-07T19:25:46.952Z,12.10
2022-11-07T19:28:13.627Z,12.00
2022-11-07T19:30:40.349Z,12.10
2022-11-07T19:33:07.389Z,12.10
2022-11-07T19:38:22.438Z,12.10
2022-11-07T19:43:37.752Z,11.90
2022-11-07T19:48:56.274Z,11.80
2022-11-07T19:51:23.412Z,11.90
2022-11-07T19:53:58.957Z,11.80
2022-11-07T19:56:27.710Z,11.80
2022-11-07T19:58:55.097Z,11.80
2022-11-07T20:01:25.039Z,11.80
2022-11-07T20:06:39.647Z,11.90
2022-11-07T20:09:09.011Z,11.80
2022-11-07T20:11:35.938Z,11.80
2022-11-07T20:14:03.921Z,11.80
2022-11-07T20:19:19.204Z,11.80
2022-11-07T20:21:45.922Z,11.70
2022-11-07T20:24:12.648Z,11.70
2022-11-07T20:26:40.344Z,11.70
2022-11-07T20:29:07.052Z,11.60
2022-11-07T20:31:37.181Z,11.60
2022-11-07T20:34:06.392Z,11.50
2022-11-07T20:39:20.281Z,11.50
2022-11-07T20:44:33.719Z,11.50
2022-11-07T20:47:00.429Z,11.50
2022-11-07T20:49:27.182Z,11.50
2022-11-07T20:51:53.909Z,11.50
2022-11-07T20:54:20.639Z,11.50
2022-11-07T20:56:47.371Z,11.50
2022-11-07T20:59:14.129Z,11.50
2022-11-07T21:01:40.945Z,11.50
2022-11-07T21:04:10.531Z,11.60
2022-11-07T21:06:37.352Z,11.50
2022-11-07T21:09:04.535Z,11.60
2022-11-07T21:11:31.353Z,11.60
2022-11-07T21:16:45.105Z,11.60
2022-11-07T21:22:02.257Z,11.60
2022-11-07T21:27:18.757Z,11.60
2022-11-07T21:32:32.124Z,11.60
2022-11-07T21:37:45.485Z,11.60
2022-11-07T21:40:12.501Z,11.70
2022-11-07T21:42:39.208Z,11.70
2022-11-07T21:45:06.335Z,11.60
2022-11-07T21:47:33.044Z,11.70
2022-11-07T21:49:59.798Z,11.80
2022-11-07T21:52:26.545Z,11.70
2022-11-07T21:54:53.273Z,11.80
2022-11-07T21:57:20.022Z,11.70
2022-11-07T21:59:46.723Z,11.80
2022-11-07T22:02:14.020Z,11.80
2022-11-07T22:04:40.759Z,11.80
2022-11-07T22:07:07.491Z,11.80
2022-11-07T22:12:20.872Z,11.80
2022-11-07T22:17:34.391Z,11.70
2022-11-07T22:20:01.116Z,11.70
2022-11-07T22:22:27.871Z,11.70
2022-11-07T22:24:54.588Z,11.70
2022-11-07T22:27:21.281Z,11.80
2022-11-07T22:29:48.007Z,11.80
2022-11-07T22:32:14.713Z,11.80
2022-11-07T22:34:41.425Z,11.70
2022-11-07T22:37:08.127Z,11.80
2022-11-07T22:39:34.854Z,11.80
2022-11-07T22:42:01.592Z,11.80
2022-11-07T22:44:28.406Z,11.80
2022-11-07T22:46:55.079Z,11.80
2022-11-07T22:49:21.790Z,11.80
2022-11-07T22:51:48.516Z,11.90
2022-11-07T22:54:15.223Z,11.90
2022-11-07T22:56:41.963Z,11.80
2022-11-07T22:59:10.745Z,11.80
2022-11-07T23:01:40.095Z,11.80
2022-11-07T23:04:08.437Z,11.80
2022-11-07T23:06:35.198Z,11.80
2022-11-07T23:09:02.463Z,11.80
2022-11-07T23:11:48.594Z,11.90
2022-11-07T23:14:19.636Z,11.80
2022-11-07T23:16:54.707Z,11.80
2022-11-07T23:19:23.856Z,11.80
2022-11-07T23:21:52.203Z,11.80
2022-11-07T23:24:19.279Z,11.80
2022-11-07T23:26:46.146Z,11.90
2022-11-07T23:29:20.849Z,11.80
2022-11-07T23:34:36.015Z,11.90
2022-11-07T23:37:02.869Z,11.90
2022-11-07T23:39:30.036Z,11.80
2022-11-07T23:41:56.819Z,11.90
2022-11-07T23:44:23.537Z,11.90
2022-11-07T23:46:50.307Z,11.90
2022-11-07T23:49:17.129Z,11.90
2022-11-07T23:51:45.681Z,11.80
2022-11-07T23:54:12.432Z,11.90
2022-11-07T23:56:39.511Z,11.90
